sensor_id;sensor_type;location;lat;lon;timestamp;P1;durP1;ratioP1;P2;durP2;ratioP2
23747;SDS011;12054;53.662;10.126;2023-06-24T00:02:07;14.55;;;10.10;;
23747;SDS011;12054;53.662;10.126;2023-06-24T00:04:33;12.85;;;10.15;;
23747;SDS011;12054;53.662;10.126;2023-06-24T00:06:59;16.23;;;10.70;;
23747;SDS011;12054;53.662;10.126;2023-06-24T00:09:28;15.77;;;10.05;;
23747;SDS011;12054;53.662;10.126;2023-06-24T00:11:55;14.38;;;10.20;;
23747;SDS011;12054;53.662;10.126;2023-06-24T00:14:24;16.08;;;10.32;;
23747;SDS011;12054;53.662;10.126;2023-06-24T00:16:51;12.98;;;9.38;;
23747;SDS011;12054;53.662;10.126;2023-06-24T00:19:18;14.73;;;10.38;;
23747;SDS011;12054;53.662;10.126;2023-06-24T00:21:45;15.57;;;10.48;;
23747;SDS011;12054;53.662;10.126;2023-06-24T00:24:12;15.45;;;10.60;;
23747;SDS011;12054;53.662;10.126;2023-06-24T00:26:37;14.40;;;10.93;;
23747;SDS011;12054;53.662;10.126;2023-06-24T00:29:03;14.45;;;10.57;;
23747;SDS011;12054;53.662;10.126;2023-06-24T00:31:28;15.15;;;10.32;;
23747;SDS011;12054;53.662;10.126;2023-06-24T00:33:54;13.57;;;10.20;;
23747;SDS011;12054;53.662;10.126;2023-06-24T00:36:20;9.95;;;7.72;;
23747;SDS011;12054;53.662;10.126;2023-06-24T00:38:45;8.95;;;6.85;;
23747;SDS011;12054;53.662;10.126;2023-06-24T00:41:11;9.68;;;7.13;;
23747;SDS011;12054;53.662;10.126;2023-06-24T00:43:37;11.55;;;8.25;;
23747;SDS011;12054;53.662;10.126;2023-06-24T00:46:03;11.88;;;8.88;;
23747;SDS011;12054;53.662;10.126;2023-06-24T00:48:31;11.45;;;9.02;;
23747;SDS011;12054;53.662;10.126;2023-06-24T00:50:57;11.75;;;9.30;;
23747;SDS011;12054;53.662;10.126;2023-06-24T00:53:23;10.55;;;9.00;;
23747;SDS011;12054;53.662;10.126;2023-06-24T00:55:50;13.65;;;9.90;;
23747;SDS011;12054;53.662;10.126;2023-06-24T00:58:16;13.70;;;9.02;;
23747;SDS011;12054;53.662;10.126;2023-06-24T01:00:45;13.30;;;9.55;;
23747;SDS011;12054;53.662;10.126;2023-06-24T01:03:13;13.20;;;9.45;;
23747;SDS011;12054;53.662;10.126;2023-06-24T01:05:39;12.75;;;9.80;;
23747;SDS011;12054;53.662;10.126;2023-06-24T01:08:05;10.77;;;9.23;;
23747;SDS011;12054;53.662;10.126;2023-06-24T01:10:31;14.48;;;10.10;;
23747;SDS011;12054;53.662;10.126;2023-06-24T01:12:57;13.80;;;10.25;;
23747;SDS011;12054;53.662;10.126;2023-06-24T01:15:23;13.75;;;10.50;;
23747;SDS011;12054;53.662;10.126;2023-06-24T01:17:54;14.02;;;10.48;;
23747;SDS011;12054;53.662;10.126;2023-06-24T01:20:42;13.85;;;10.05;;
23747;SDS011;12054;53.662;10.126;2023-06-24T01:23:20;13.60;;;9.48;;
23747;SDS011;12054;53.662;10.126;2023-06-24T01:31:39;12.25;;;9.35;;
23747;SDS011;12054;53.662;10.126;2023-06-24T01:36:55;12.70;;;9.25;;
23747;SDS011;12054;53.662;10.126;2023-06-24T01:39:28;9.68;;;7.47;;
23747;SDS011;12054;53.662;10.126;2023-06-24T01:42:00;9.68;;;6.70;;
23747;SDS011;12054;53.662;10.126;2023-06-24T01:44:31;6.90;;;5.70;;
23747;SDS011;12054;53.662;10.126;2023-06-24T01:46:58;6.50;;;5.18;;
23747;SDS011;12054;53.662;10.126;2023-06-24T01:49:27;9.55;;;5.75;;
23747;SDS011;12054;53.662;10.126;2023-06-24T01:51:55;6.18;;;5.28;;
23747;SDS011;12054;53.662;10.126;2023-06-24T01:54:23;6.35;;;4.63;;
23747;SDS011;12054;53.662;10.126;2023-06-24T01:56:51;6.85;;;4.65;;
23747;SDS011;12054;53.662;10.126;2023-06-24T01:59:19;8.18;;;5.30;;
23747;SDS011;12054;53.662;10.126;2023-06-24T02:01:46;7.47;;;5.97;;
23747;SDS011;12054;53.662;10.126;2023-06-24T02:04:12;10.85;;;7.70;;
23747;SDS011;12054;53.662;10.126;2023-06-24T02:06:39;10.27;;;8.50;;
23747;SDS011;12054;53.662;10.126;2023-06-24T02:09:07;12.68;;;8.82;;
23747;SDS011;12054;53.662;10.126;2023-06-24T02:11:33;10.48;;;8.45;;
23747;SDS011;12054;53.662;10.126;2023-06-24T02:14:01;11.23;;;9.18;;
23747;SDS011;12054;53.662;10.126;2023-06-24T02:16:28;12.45;;;8.88;;
23747;SDS011;12054;53.662;10.126;2023-06-24T02:18:54;13.35;;;9.30;;
23747;SDS011;12054;53.662;10.126;2023-06-24T02:21:21;6.60;;;5.32;;
23747;SDS011;12054;53.662;10.126;2023-06-24T02:23:48;5.90;;;4.35;;
23747;SDS011;12054;53.662;10.126;2023-06-24T02:26:14;4.10;;;3.55;;
23747;SDS011;12054;53.662;10.126;2023-06-24T02:28:41;4.40;;;3.50;;
23747;SDS011;12054;53.662;10.126;2023-06-24T02:31:08;5.47;;;3.90;;
23747;SDS011;12054;53.662;10.126;2023-06-24T02:33:35;7.88;;;5.18;;
23747;SDS011;12054;53.662;10.126;2023-06-24T02:36:00;9.60;;;7.80;;
23747;SDS011;12054;53.662;10.126;2023-06-24T02:38:26;9.18;;;7.07;;
23747;SDS011;12054;53.662;10.126;2023-06-24T02:40:52;4.43;;;3.25;;
23747;SDS011;12054;53.662;10.126;2023-06-24T02:43:17;4.22;;;3.08;;
23747;SDS011;12054;53.662;10.126;2023-06-24T02:45:43;4.20;;;3.80;;
23747;SDS011;12054;53.662;10.126;2023-06-24T02:48:10;3.08;;;2.72;;
23747;SDS011;12054;53.662;10.126;2023-06-24T02:50:36;5.72;;;4.75;;
23747;SDS011;12054;53.662;10.126;2023-06-24T02:53:05;3.28;;;2.50;;
23747;SDS011;12054;53.662;10.126;2023-06-24T02:55:32;2.20;;;1.80;;
23747;SDS011;12054;53.662;10.126;2023-06-24T02:57:59;3.67;;;2.22;;
23747;SDS011;12054;53.662;10.126;2023-06-24T03:00:27;3.50;;;2.90;;
23747;SDS011;12054;53.662;10.126;2023-06-24T03:02:52;3.40;;;1.58;;
23747;SDS011;12054;53.662;10.126;2023-06-24T03:05:19;2.05;;;1.73;;
23747;SDS011;12054;53.662;10.126;2023-06-24T03:07:44;3.13;;;2.65;;
23747;SDS011;12054;53.662;10.126;2023-06-24T03:10:11;3.60;;;3.15;;
23747;SDS011;12054;53.662;10.126;2023-06-24T03:12:38;6.47;;;4.60;;
23747;SDS011;12054;53.662;10.126;2023-06-24T03:15:03;6.05;;;4.97;;
23747;SDS011;12054;53.662;10.126;2023-06-24T03:17:29;6.22;;;4.70;;
23747;SDS011;12054;53.662;10.126;2023-06-24T03:19:55;10.10;;;7.22;;
23747;SDS011;12054;53.662;10.126;2023-06-24T03:22:21;9.20;;;7.32;;
23747;SDS011;12054;53.662;10.126;2023-06-24T03:24:47;8.57;;;6.88;;
23747;SDS011;12054;53.662;10.126;2023-06-24T03:27:12;11.27;;;8.07;;
23747;SDS011;12054;53.662;10.126;2023-06-24T03:29:38;11.85;;;9.63;;
23747;SDS011;12054;53.662;10.126;2023-06-24T03:32:03;12.38;;;9.02;;
23747;SDS011;12054;53.662;10.126;2023-06-24T03:34:29;3.75;;;2.83;;
23747;SDS011;12054;53.662;10.126;2023-06-24T03:36:54;3.80;;;2.78;;
23747;SDS011;12054;53.662;10.126;2023-06-24T03:39:20;4.72;;;3.15;;
23747;SDS011;12054;53.662;10.126;2023-06-24T03:41:46;7.18;;;5.28;;
23747;SDS011;12054;53.662;10.126;2023-06-24T03:44:11;10.35;;;7.63;;
23747;SDS011;12054;53.662;10.126;2023-06-24T03:46:37;10.15;;;8.48;;
23747;SDS011;12054;53.662;10.126;2023-06-24T03:49:03;13.32;;;9.57;;
23747;SDS011;12054;53.662;10.126;2023-06-24T03:51:28;12.93;;;9.50;;
23747;SDS011;12054;53.662;10.126;2023-06-24T03:53:54;13.40;;;9.70;;
23747;SDS011;12054;53.662;10.126;2023-06-24T03:56:20;10.85;;;7.85;;
23747;SDS011;12054;53.662;10.126;2023-06-24T03:58:45;13.25;;;9.35;;
23747;SDS011;12054;53.662;10.126;2023-06-24T04:01:11;13.25;;;9.32;;
23747;SDS011;12054;53.662;10.126;2023-06-24T04:03:36;12.73;;;9.70;;
23747;SDS011;12054;53.662;10.126;2023-06-24T04:06:02;13.32;;;9.65;;
23747;SDS011;12054;53.662;10.126;2023-06-24T04:08:27;11.63;;;8.90;;
23747;SDS011;12054;53.662;10.126;2023-06-24T04:10:59;14.82;;;9.90;;
23747;SDS011;12054;53.662;10.126;2023-06-24T04:13:28;9.95;;;8.10;;
23747;SDS011;12054;53.662;10.126;2023-06-24T04:15:54;10.50;;;8.45;;
23747;SDS011;12054;53.662;10.126;2023-06-24T04:18:20;12.45;;;9.20;;
23747;SDS011;12054;53.662;10.126;2023-06-24T04:20:45;12.20;;;9.20;;
23747;SDS011;12054;53.662;10.126;2023-06-24T04:23:12;12.18;;;8.80;;
23747;SDS011;12054;53.662;10.126;2023-06-24T04:25:39;13.75;;;9.02;;
23747;SDS011;12054;53.662;10.126;2023-06-24T04:28:05;12.70;;;9.55;;
23747;SDS011;12054;53.662;10.126;2023-06-24T04:30:31;11.57;;;8.90;;
23747;SDS011;12054;53.662;10.126;2023-06-24T04:32:57;13.32;;;9.77;;
23747;SDS011;12054;53.662;10.126;2023-06-24T04:35:23;16.55;;;10.88;;
23747;SDS011;12054;53.662;10.126;2023-06-24T04:37:49;13.52;;;10.30;;
23747;SDS011;12054;53.662;10.126;2023-06-24T04:40:17;12.43;;;9.63;;
23747;SDS011;12054;53.662;10.126;2023-06-24T04:42:43;14.93;;;10.52;;
23747;SDS011;12054;53.662;10.126;2023-06-24T04:45:09;11.68;;;9.57;;
23747;SDS011;12054;53.662;10.126;2023-06-24T04:47:35;14.63;;;9.52;;
23747;SDS011;12054;53.662;10.126;2023-06-24T04:50:01;14.90;;;10.18;;
23747;SDS011;12054;53.662;10.126;2023-06-24T04:52:26;14.18;;;9.95;;
23747;SDS011;12054;53.662;10.126;2023-06-24T04:54:52;13.55;;;9.80;;
23747;SDS011;12054;53.662;10.126;2023-06-24T04:57:25;14.45;;;10.07;;
23747;SDS011;12054;53.662;10.126;2023-06-24T04:59:52;11.65;;;9.75;;
23747;SDS011;12054;53.662;10.126;2023-06-24T05:02:18;14.63;;;9.95;;
23747;SDS011;12054;53.662;10.126;2023-06-24T05:04:43;15.50;;;9.70;;
23747;SDS011;12054;53.662;10.126;2023-06-24T05:07:09;14.93;;;9.20;;
23747;SDS011;12054;53.662;10.126;2023-06-24T05:09:34;11.95;;;8.40;;
23747;SDS011;12054;53.662;10.126;2023-06-24T05:12:04;13.50;;;8.02;;
23747;SDS011;12054;53.662;10.126;2023-06-24T05:14:30;15.10;;;8.77;;
23747;SDS011;12054;53.662;10.126;2023-06-24T05:16:56;10.68;;;7.63;;
23747;SDS011;12054;53.662;10.126;2023-06-24T05:19:21;12.05;;;8.35;;
23747;SDS011;12054;53.662;10.126;2023-06-24T05:21:47;8.80;;;7.75;;
23747;SDS011;12054;53.662;10.126;2023-06-24T05:24:12;13.27;;;8.18;;
23747;SDS011;12054;53.662;10.126;2023-06-24T05:26:38;12.30;;;7.18;;
23747;SDS011;12054;53.662;10.126;2023-06-24T05:29:03;11.38;;;7.88;;
23747;SDS011;12054;53.662;10.126;2023-06-24T05:31:29;10.07;;;6.95;;
23747;SDS011;12054;53.662;10.126;2023-06-24T05:33:54;10.05;;;7.18;;
23747;SDS011;12054;53.662;10.126;2023-06-24T05:36:21;10.60;;;6.50;;
23747;SDS011;12054;53.662;10.126;2023-06-24T05:38:47;8.60;;;6.88;;
23747;SDS011;12054;53.662;10.126;2023-06-24T05:41:13;9.65;;;6.45;;
23747;SDS011;12054;53.662;10.126;2023-06-24T05:43:39;9.60;;;6.20;;
23747;SDS011;12054;53.662;10.126;2023-06-24T05:46:07;9.52;;;6.88;;
23747;SDS011;12054;53.662;10.126;2023-06-24T05:48:33;13.82;;;7.03;;
23747;SDS011;12054;53.662;10.126;2023-06-24T05:50:58;8.30;;;6.57;;
23747;SDS011;12054;53.662;10.126;2023-06-24T05:53:23;7.95;;;5.72;;
23747;SDS011;12054;53.662;10.126;2023-06-24T05:55:49;8.07;;;6.32;;
23747;SDS011;12054;53.662;10.126;2023-06-24T05:58:15;6.68;;;5.47;;
23747;SDS011;12054;53.662;10.126;2023-06-24T06:00:40;8.95;;;5.85;;
23747;SDS011;12054;53.662;10.126;2023-06-24T06:03:06;11.75;;;5.50;;
23747;SDS011;12054;53.662;10.126;2023-06-24T06:05:31;7.72;;;5.72;;
23747;SDS011;12054;53.662;10.126;2023-06-24T06:07:57;10.68;;;7.07;;
23747;SDS011;12054;53.662;10.126;2023-06-24T06:10:22;9.65;;;6.15;;
23747;SDS011;12054;53.662;10.126;2023-06-24T06:12:48;10.13;;;5.50;;
23747;SDS011;12054;53.662;10.126;2023-06-24T06:15:14;8.55;;;5.95;;
23747;SDS011;12054;53.662;10.126;2023-06-24T06:17:39;6.78;;;5.25;;
23747;SDS011;12054;53.662;10.126;2023-06-24T06:20:06;10.57;;;5.50;;
23747;SDS011;12054;53.662;10.126;2023-06-24T06:22:31;7.93;;;5.50;;
23747;SDS011;12054;53.662;10.126;2023-06-24T06:25:02;9.57;;;5.50;;
23747;SDS011;12054;53.662;10.126;2023-06-24T06:27:28;7.13;;;4.80;;
23747;SDS011;12054;53.662;10.126;2023-06-24T06:29:54;7.85;;;5.40;;
23747;SDS011;12054;53.662;10.126;2023-06-24T06:32:19;10.75;;;5.43;;
23747;SDS011;12054;53.662;10.126;2023-06-24T06:34:45;7.85;;;5.25;;
23747;SDS011;12054;53.662;10.126;2023-06-24T06:37:10;6.47;;;4.85;;
23747;SDS011;12054;53.662;10.126;2023-06-24T06:39:36;7.72;;;4.93;;
23747;SDS011;12054;53.662;10.126;2023-06-24T06:42:01;7.07;;;5.57;;
23747;SDS011;12054;53.662;10.126;2023-06-24T06:44:27;6.30;;;4.82;;
23747;SDS011;12054;53.662;10.126;2023-06-24T06:46:52;5.88;;;4.60;;
23747;SDS011;12054;53.662;10.126;2023-06-24T06:49:18;7.40;;;5.07;;
23747;SDS011;12054;53.662;10.126;2023-06-24T06:51:43;8.43;;;4.78;;
23747;SDS011;12054;53.662;10.126;2023-06-24T06:54:09;7.00;;;4.28;;
23747;SDS011;12054;53.662;10.126;2023-06-24T06:56:34;7.05;;;4.45;;
23747;SDS011;12054;53.662;10.126;2023-06-24T06:58:59;8.90;;;4.15;;
23747;SDS011;12054;53.662;10.126;2023-06-24T07:01:25;6.78;;;4.65;;
23747;SDS011;12054;53.662;10.126;2023-06-24T07:04:07;5.85;;;4.20;;
23747;SDS011;12054;53.662;10.126;2023-06-24T07:06:32;5.78;;;4.20;;
23747;SDS011;12054;53.662;10.126;2023-06-24T07:08:58;8.07;;;4.43;;
23747;SDS011;12054;53.662;10.126;2023-06-24T07:11:24;4.65;;;3.80;;
23747;SDS011;12054;53.662;10.126;2023-06-24T07:13:50;6.47;;;3.60;;
23747;SDS011;12054;53.662;10.126;2023-06-24T07:16:16;6.03;;;3.92;;
23747;SDS011;12054;53.662;10.126;2023-06-24T07:18:42;4.28;;;3.33;;
23747;SDS011;12054;53.662;10.126;2023-06-24T07:21:15;6.95;;;4.07;;
23747;SDS011;12054;53.662;10.126;2023-06-24T07:23:40;7.38;;;4.22;;
23747;SDS011;12054;53.662;10.126;2023-06-24T07:26:06;6.32;;;4.32;;
23747;SDS011;12054;53.662;10.126;2023-06-24T07:28:32;5.63;;;4.07;;
23747;SDS011;12054;53.662;10.126;2023-06-24T07:31:01;5.10;;;3.53;;
23747;SDS011;12054;53.662;10.126;2023-06-24T07:33:29;4.47;;;3.58;;
23747;SDS011;12054;53.662;10.126;2023-06-24T07:35:55;5.20;;;4.15;;
23747;SDS011;12054;53.662;10.126;2023-06-24T07:38:40;5.72;;;4.00;;
23747;SDS011;12054;53.662;10.126;2023-06-24T07:41:05;6.32;;;4.28;;
23747;SDS011;12054;53.662;10.126;2023-06-24T07:43:31;6.32;;;3.75;;
23747;SDS011;12054;53.662;10.126;2023-06-24T07:45:56;8.93;;;4.18;;
23747;SDS011;12054;53.662;10.126;2023-06-24T07:48:22;5.53;;;4.00;;
23747;SDS011;12054;53.662;10.126;2023-06-24T07:50:47;7.53;;;3.47;;
23747;SDS011;12054;53.662;10.126;2023-06-24T07:53:13;4.30;;;3.50;;
23747;SDS011;12054;53.662;10.126;2023-06-24T07:55:38;5.15;;;3.65;;
23747;SDS011;12054;53.662;10.126;2023-06-24T07:58:04;5.47;;;3.63;;
23747;SDS011;12054;53.662;10.126;2023-06-24T08:00:30;4.15;;;3.50;;
23747;SDS011;12054;53.662;10.126;2023-06-24T08:02:56;4.22;;;3.47;;
23747;SDS011;12054;53.662;10.126;2023-06-24T08:05:22;4.05;;;3.55;;
23747;SDS011;12054;53.662;10.126;2023-06-24T08:07:48;4.35;;;3.95;;
23747;SDS011;12054;53.662;10.126;2023-06-24T08:10:15;6.60;;;3.80;;
23747;SDS011;12054;53.662;10.126;2023-06-24T08:12:40;5.18;;;3.65;;
23747;SDS011;12054;53.662;10.126;2023-06-24T08:15:06;3.78;;;3.40;;
23747;SDS011;12054;53.662;10.126;2023-06-24T08:17:32;5.15;;;4.00;;
23747;SDS011;12054;53.662;10.126;2023-06-24T08:19:57;4.97;;;3.78;;
23747;SDS011;12054;53.662;10.126;2023-06-24T08:22:23;4.32;;;3.40;;
23747;SDS011;12054;53.662;10.126;2023-06-24T08:24:48;5.88;;;3.80;;
23747;SDS011;12054;53.662;10.126;2023-06-24T08:27:14;3.72;;;3.30;;
23747;SDS011;12054;53.662;10.126;2023-06-24T08:29:39;4.32;;;3.40;;
23747;SDS011;12054;53.662;10.126;2023-06-24T08:32:05;6.03;;;3.42;;
23747;SDS011;12054;53.662;10.126;2023-06-24T08:34:33;4.18;;;3.40;;
23747;SDS011;12054;53.662;10.126;2023-06-24T08:36:59;3.90;;;3.42;;
23747;SDS011;12054;53.662;10.126;2023-06-24T08:39:25;3.75;;;3.35;;
23747;SDS011;12054;53.662;10.126;2023-06-24T08:41:50;6.13;;;3.50;;
23747;SDS011;12054;53.662;10.126;2023-06-24T08:44:16;5.38;;;3.70;;
23747;SDS011;12054;53.662;10.126;2023-06-24T08:46:43;3.65;;;3.35;;
23747;SDS011;12054;53.662;10.126;2023-06-24T08:51:50;4.82;;;3.50;;
23747;SDS011;12054;53.662;10.126;2023-06-24T08:54:36;4.55;;;3.45;;
23747;SDS011;12054;53.662;10.126;2023-06-24T08:57:05;5.13;;;3.42;;
23747;SDS011;12054;53.662;10.126;2023-06-24T08:59:36;4.15;;;3.45;;
23747;SDS011;12054;53.662;10.126;2023-06-24T09:02:04;5.00;;;3.30;;
23747;SDS011;12054;53.662;10.126;2023-06-24T09:04:29;5.75;;;3.42;;
23747;SDS011;12054;53.662;10.126;2023-06-24T09:06:55;3.80;;;3.40;;
23747;SDS011;12054;53.662;10.126;2023-06-24T09:09:21;3.35;;;2.97;;
23747;SDS011;12054;53.662;10.126;2023-06-24T09:11:54;5.57;;;3.53;;
23747;SDS011;12054;53.662;10.126;2023-06-24T09:14:25;4.13;;;3.63;;
23747;SDS011;12054;53.662;10.126;2023-06-24T09:16:59;5.68;;;3.60;;
23747;SDS011;12054;53.662;10.126;2023-06-24T09:19:37;4.20;;;3.78;;
23747;SDS011;12054;53.662;10.126;2023-06-24T09:22:03;4.18;;;3.78;;
23747;SDS011;12054;53.662;10.126;2023-06-24T09:24:30;10.02;;;4.03;;
23747;SDS011;12054;53.662;10.126;2023-06-24T09:26:56;6.15;;;3.60;;
23747;SDS011;12054;53.662;10.126;2023-06-24T09:29:25;5.13;;;3.65;;
23747;SDS011;12054;53.662;10.126;2023-06-24T09:31:54;4.22;;;3.53;;
23747;SDS011;12054;53.662;10.126;2023-06-24T09:34:25;7.93;;;3.83;;
23747;SDS011;12054;53.662;10.126;2023-06-24T09:36:52;6.97;;;3.97;;
23747;SDS011;12054;53.662;10.126;2023-06-24T09:39:19;5.60;;;3.50;;
23747;SDS011;12054;53.662;10.126;2023-06-24T09:41:50;6.10;;;3.58;;
23747;SDS011;12054;53.662;10.126;2023-06-24T09:44:16;4.80;;;4.00;;
23747;SDS011;12054;53.662;10.126;2023-06-24T09:46:44;5.40;;;4.00;;
23747;SDS011;12054;53.662;10.126;2023-06-24T09:49:09;3.85;;;3.55;;
23747;SDS011;12054;53.662;10.126;2023-06-24T09:51:39;5.78;;;4.07;;
23747;SDS011;12054;53.662;10.126;2023-06-24T09:54:10;6.35;;;3.88;;
23747;SDS011;12054;53.662;10.126;2023-06-24T09:56:37;4.55;;;3.70;;
23747;SDS011;12054;53.662;10.126;2023-06-24T09:59:13;3.88;;;3.45;;
23747;SDS011;12054;53.662;10.126;2023-06-24T10:01:40;4.32;;;3.60;;
23747;SDS011;12054;53.662;10.126;2023-06-24T10:04:06;3.97;;;3.58;;
23747;SDS011;12054;53.662;10.126;2023-06-24T10:06:33;4.38;;;3.60;;
23747;SDS011;12054;53.662;10.126;2023-06-24T10:09:00;4.47;;;3.90;;
23747;SDS011;12054;53.662;10.126;2023-06-24T10:11:26;4.70;;;3.90;;
23747;SDS011;12054;53.662;10.126;2023-06-24T10:13:52;4.22;;;3.83;;
23747;SDS011;12054;53.662;10.126;2023-06-24T10:16:18;5.13;;;3.95;;
23747;SDS011;12054;53.662;10.126;2023-06-24T10:18:44;6.43;;;3.72;;
23747;SDS011;12054;53.662;10.126;2023-06-24T10:21:11;4.43;;;4.03;;
23747;SDS011;12054;53.662;10.126;2023-06-24T10:26:09;6.45;;;4.50;;
23747;SDS011;12054;53.662;10.126;2023-06-24T10:34:40;6.32;;;4.22;;
23747;SDS011;12054;53.662;10.126;2023-06-24T10:37:22;4.55;;;3.80;;
23747;SDS011;12054;53.662;10.126;2023-06-24T10:42:24;4.65;;;4.18;;
23747;SDS011;12054;53.662;10.126;2023-06-24T10:47:42;4.68;;;4.15;;
23747;SDS011;12054;53.662;10.126;2023-06-24T10:50:13;6.10;;;4.22;;
23747;SDS011;12054;53.662;10.126;2023-06-24T10:52:41;5.15;;;4.15;;
23747;SDS011;12054;53.662;10.126;2023-06-24T10:55:09;4.50;;;4.10;;
23747;SDS011;12054;53.662;10.126;2023-06-24T10:57:34;5.68;;;3.95;;
23747;SDS011;12054;53.662;10.126;2023-06-24T11:00:00;4.78;;;4.28;;
23747;SDS011;12054;53.662;10.126;2023-06-24T11:02:28;4.57;;;3.67;;
23747;SDS011;12054;53.662;10.126;2023-06-24T11:04:58;5.20;;;3.70;;
23747;SDS011;12054;53.662;10.126;2023-06-24T11:07:29;4.63;;;3.53;;
23747;SDS011;12054;53.662;10.126;2023-06-24T11:10:03;7.40;;;3.58;;
23747;SDS011;12054;53.662;10.126;2023-06-24T11:12:31;13.23;;;4.10;;
23747;SDS011;12054;53.662;10.126;2023-06-24T11:14:58;5.75;;;4.13;;
23747;SDS011;12054;53.662;10.126;2023-06-24T11:17:26;5.07;;;4.20;;
23747;SDS011;12054;53.662;10.126;2023-06-24T11:19:52;6.82;;;4.07;;
23747;SDS011;12054;53.662;10.126;2023-06-24T11:22:19;7.15;;;3.80;;
23747;SDS011;12054;53.662;10.126;2023-06-24T11:24:44;5.10;;;3.83;;
23747;SDS011;12054;53.662;10.126;2023-06-24T11:27:10;4.35;;;3.90;;
23747;SDS011;12054;53.662;10.126;2023-06-24T11:29:35;5.68;;;4.20;;
23747;SDS011;12054;53.662;10.126;2023-06-24T11:32:02;5.07;;;4.10;;
23747;SDS011;12054;53.662;10.126;2023-06-24T11:34:28;4.68;;;3.58;;
23747;SDS011;12054;53.662;10.126;2023-06-24T11:36:54;4.35;;;3.80;;
23747;SDS011;12054;53.662;10.126;2023-06-24T11:39:23;5.00;;;3.58;;
23747;SDS011;12054;53.662;10.126;2023-06-24T11:41:50;5.63;;;4.15;;
23747;SDS011;12054;53.662;10.126;2023-06-24T11:44:17;4.35;;;3.85;;
23747;SDS011;12054;53.662;10.126;2023-06-24T11:46:46;5.57;;;3.45;;
23747;SDS011;12054;53.662;10.126;2023-06-24T11:49:12;5.15;;;3.63;;
23747;SDS011;12054;53.662;10.126;2023-06-24T11:51:45;4.10;;;3.70;;
23747;SDS011;12054;53.662;10.126;2023-06-24T11:54:16;4.88;;;3.80;;
23747;SDS011;12054;53.662;10.126;2023-06-24T11:56:43;4.20;;;3.80;;
23747;SDS011;12054;53.662;10.126;2023-06-24T11:59:22;8.18;;;3.90;;
23747;SDS011;12054;53.662;10.126;2023-06-24T12:01:53;4.30;;;3.90;;
23747;SDS011;12054;53.662;10.126;2023-06-24T12:04:20;9.13;;;3.92;;
23747;SDS011;12054;53.662;10.126;2023-06-24T12:06:51;4.07;;;3.67;;
23747;SDS011;12054;53.662;10.126;2023-06-24T12:09:17;4.47;;;3.75;;
23747;SDS011;12054;53.662;10.126;2023-06-24T12:11:42;4.10;;;3.70;;
23747;SDS011;12054;53.662;10.126;2023-06-24T12:14:08;4.28;;;3.88;;
23747;SDS011;12054;53.662;10.126;2023-06-24T12:16:34;8.60;;;5.65;;
23747;SDS011;12054;53.662;10.126;2023-06-24T12:18:59;5.15;;;3.92;;
23747;SDS011;12054;53.662;10.126;2023-06-24T12:21:25;5.50;;;4.43;;
23747;SDS011;12054;53.662;10.126;2023-06-24T12:23:50;4.47;;;4.07;;
23747;SDS011;12054;53.662;10.126;2023-06-24T12:26:16;5.30;;;4.40;;
23747;SDS011;12054;53.662;10.126;2023-06-24T12:28:41;5.30;;;4.80;;
23747;SDS011;12054;53.662;10.126;2023-06-24T12:31:06;5.63;;;5.10;;
23747;SDS011;12054;53.662;10.126;2023-06-24T12:33:32;4.47;;;4.07;;
23747;SDS011;12054;53.662;10.126;2023-06-24T12:35:58;4.40;;;4.00;;
23747;SDS011;12054;53.662;10.126;2023-06-24T12:38:24;4.70;;;4.25;;
23747;SDS011;12054;53.662;10.126;2023-06-24T12:40:49;5.40;;;4.30;;
23747;SDS011;12054;53.662;10.126;2023-06-24T12:43:15;5.60;;;4.60;;
23747;SDS011;12054;53.662;10.126;2023-06-24T12:45:41;4.78;;;4.38;;
23747;SDS011;12054;53.662;10.126;2023-06-24T12:48:10;6.35;;;4.75;;
23747;SDS011;12054;53.662;10.126;2023-06-24T12:50:36;5.15;;;4.32;;
23747;SDS011;12054;53.662;10.126;2023-06-24T12:53:02;5.18;;;4.40;;
23747;SDS011;12054;53.662;10.126;2023-06-24T12:55:28;5.88;;;4.80;;
23747;SDS011;12054;53.662;10.126;2023-06-24T12:57:54;4.70;;;4.28;;
23747;SDS011;12054;53.662;10.126;2023-06-24T13:00:20;5.90;;;4.75;;
23747;SDS011;12054;53.662;10.126;2023-06-24T13:02:47;5.50;;;4.88;;
23747;SDS011;12054;53.662;10.126;2023-06-24T13:05:13;5.43;;;4.50;;
23747;SDS011;12054;53.662;10.126;2023-06-24T13:07:39;5.22;;;4.75;;
23747;SDS011;12054;53.662;10.126;2023-06-24T13:10:04;5.25;;;4.75;;
23747;SDS011;12054;53.662;10.126;2023-06-24T13:12:33;5.70;;;4.78;;
23747;SDS011;12054;53.662;10.126;2023-06-24T13:14:59;5.60;;;4.38;;
23747;SDS011;12054;53.662;10.126;2023-06-24T13:17:25;5.75;;;4.78;;
23747;SDS011;12054;53.662;10.126;2023-06-24T13:19:51;5.50;;;4.15;;
23747;SDS011;12054;53.662;10.126;2023-06-24T13:22:17;7.18;;;4.72;;
23747;SDS011;12054;53.662;10.126;2023-06-24T13:24:43;6.90;;;4.45;;
23747;SDS011;12054;53.662;10.126;2023-06-24T13:27:09;5.65;;;4.70;;
23747;SDS011;12054;53.662;10.126;2023-06-24T13:29:35;6.20;;;5.60;;
23747;SDS011;12054;53.662;10.126;2023-06-24T13:32:01;4.88;;;4.22;;
23747;SDS011;12054;53.662;10.126;2023-06-24T13:34:26;4.82;;;4.30;;
23747;SDS011;12054;53.662;10.126;2023-06-24T13:36:52;5.30;;;4.80;;
23747;SDS011;12054;53.662;10.126;2023-06-24T13:39:17;5.20;;;4.70;;
23747;SDS011;12054;53.662;10.126;2023-06-24T13:41:46;4.82;;;4.30;;
23747;SDS011;12054;53.662;10.126;2023-06-24T13:44:12;4.75;;;4.35;;
23747;SDS011;12054;53.662;10.126;2023-06-24T13:46:38;6.63;;;4.05;;
23747;SDS011;12054;53.662;10.126;2023-06-24T13:49:04;4.63;;;4.15;;
23747;SDS011;12054;53.662;10.126;2023-06-24T13:51:29;8.40;;;4.07;;
23747;SDS011;12054;53.662;10.126;2023-06-24T13:53:55;5.82;;;4.03;;
23747;SDS011;12054;53.662;10.126;2023-06-24T13:56:21;4.55;;;4.13;;
23747;SDS011;12054;53.662;10.126;2023-06-24T13:58:49;6.10;;;4.97;;
23747;SDS011;12054;53.662;10.126;2023-06-24T14:01:15;5.55;;;4.53;;
23747;SDS011;12054;53.662;10.126;2023-06-24T14:03:41;4.10;;;3.70;;
23747;SDS011;12054;53.662;10.126;2023-06-24T14:06:08;4.53;;;4.10;;
23747;SDS011;12054;53.662;10.126;2023-06-24T14:08:34;5.75;;;4.45;;
23747;SDS011;12054;53.662;10.126;2023-06-24T14:11:00;5.13;;;4.32;;
23747;SDS011;12054;53.662;10.126;2023-06-24T14:13:26;4.78;;;4.22;;
23747;SDS011;12054;53.662;10.126;2023-06-24T14:15:53;4.75;;;4.22;;
23747;SDS011;12054;53.662;10.126;2023-06-24T14:18:19;6.13;;;4.28;;
23747;SDS011;12054;53.662;10.126;2023-06-24T14:20:45;4.45;;;4.05;;
23747;SDS011;12054;53.662;10.126;2023-06-24T14:23:11;5.28;;;4.07;;
23747;SDS011;12054;53.662;10.126;2023-06-24T14:25:36;5.70;;;4.13;;
23747;SDS011;12054;53.662;10.126;2023-06-24T14:28:03;4.78;;;3.83;;
23747;SDS011;12054;53.662;10.126;2023-06-24T14:30:29;4.28;;;3.88;;
23747;SDS011;12054;53.662;10.126;2023-06-24T14:32:54;4.13;;;3.83;;
23747;SDS011;12054;53.662;10.126;2023-06-24T14:35:20;8.90;;;4.13;;
23747;SDS011;12054;53.662;10.126;2023-06-24T14:37:45;5.78;;;4.07;;
23747;SDS011;12054;53.662;10.126;2023-06-24T14:40:11;5.90;;;4.20;;
23747;SDS011;12054;53.662;10.126;2023-06-24T14:42:36;4.32;;;3.85;;
23747;SDS011;12054;53.662;10.126;2023-06-24T14:45:02;4.57;;;4.05;;
23747;SDS011;12054;53.662;10.126;2023-06-24T14:47:27;5.47;;;4.00;;
23747;SDS011;12054;53.662;10.126;2023-06-24T14:49:53;4.30;;;3.90;;
23747;SDS011;12054;53.662;10.126;2023-06-24T14:52:18;4.40;;;3.78;;
23747;SDS011;12054;53.662;10.126;2023-06-24T14:54:45;4.32;;;3.90;;